Observations
| Time | Sensor | AQI | SAQ | Temp °C | Hum % | Pres Pa | CO μg/m³ | H₂S μg/m³ | NO μg/m³ | NO₂ μg/m³ | O₃ μg/m³ | SO₂ μg/m³ | CO₂e PPM | VOC PPM | PM1 μg/m³ | PM2.5 μg/m³ | PM4 μg/m³ | PM10 μg/m³ | TPS µm |
|---|---|---|---|---|---|---|---|---|---|---|---|---|---|---|---|---|---|---|---|
| Tuesday 11 August 2026 | |||||||||||||||||||
| 04:48 | Trim Patrick St | 1 | 11.2 | 81 | 38,460 | 0.4 | 2.44 | 4.13 | 24.88 | 9.22 | 0 | 3.71 | 7.92 | 8.71 | |||||
| 04:47 | Trim Market St | 2 | 12.7 | 75 | 46,490 | 0.38 | 0 | 3.71 | 12.84 | 31.79 | 0 | 2.85 | 4.76 | 7.53 | |||||
| 04:47 | Trim Patrick St | 1 | 11.2 | 81 | 38,460 | 0.39 | 2.7 | 4.11 | 26.93 | 7.29 | 0 | 4.57 | 7.92 | 8.71 | |||||
| 04:46 | Trim Market St | 2 | 12.7 | 75 | 46,525 | 0.38 | 0 | 3.77 | 13.78 | 31.48 | 0 | 1.43 | 3.32 | 6.33 | |||||
| 04:46 | Trim Patrick St | 1 | 11.2 | 81 | 38,460 | 0.39 | 3.01 | 4.06 | 27.36 | 7.48 | 0 | 4.57 | 8.62 | 9.48 | |||||
| 04:45 | Trim Market St | 2 | 12.7 | 75 | 46,526 | 0.37 | 0 | 3.81 | 12.64 | 31.27 | 0 | 2.14 | 3.8 | 7.53 | |||||
| 04:45 | Trim Patrick St | 1 | 11.2 | 81 | 38,460 | 0.39 | 2.47 | 4.07 | 24.5 | 8.39 | 0 | 5.43 | 8.62 | 9.48 | |||||
| 04:44 | Trim Market St | 2 | 12.7 | 75 | 46,495 | 0.41 | 0 | 3.83 | 13.23 | 33.94 | 0 | 2.14 | 3.8 | 6.33 | |||||
| 04:44 | Trim Patrick St | 1 | 11.2 | 81 | 38,460 | 0.38 | 2.26 | 3.98 | 24.87 | 8.06 | 0 | 4.57 | 8.62 | 9.49 | |||||
| 04:43 | Trim Market St | 2 | 12.7 | 75 | 46,432 | 0.37 | 0 | 3.83 | 13.78 | 32.58 | 0 | 2.14 | 3.8 | 6.33 | |||||
| 04:43 | Trim Patrick St | 1 | 11.2 | 81 | 38,460 | 0.39 | 2.08 | 4.04 | 20.65 | 14.67 | 0 | 4.57 | 7.93 | 8.72 | |||||
| 04:42 | Trim Market St | 2 | 12.7 | 75 | 46,333 | 0.37 | 0 | 3.83 | 12.45 | 31.9 | 0 | 2.85 | 5.23 | 8.73 | |||||
| 04:42 | Trim Patrick St | 1 | 11.2 | 81 | 38,460 | 0.38 | 2.52 | 4.05 | 24.5 | 10.09 | 0 | 4.57 | 7.92 | 8.71 | |||||
| 04:41 | Trim Market St | 2 | 12.7 | 75 | 46,244 | 0.37 | 0 | 3.83 | 13.98 | 30.27 | 0 | 1.43 | 3.32 | 5.73 | |||||
| 04:41 | Trim Patrick St | 1 | 11.2 | 81 | 38,460 | 0.38 | 2.54 | 4.09 | 23.01 | 10.73 | 0 | 5.43 | 10.01 | 11.01 | |||||
| 04:40 | Trim Market St | 2 | 12.7 | 74 | 46,115 | 0.37 | 0 | 3.8 | 10.88 | 37.78 | 0 | 2.85 | 3.8 | 6.33 | |||||
| 04:40 | Trim Patrick St | 1 | 11.2 | 81 | 38,460 | 0.38 | 2.72 | 4.09 | 24.1 | 10.18 | 0 | 4.57 | 10.02 | 11.02 | |||||
| 04:39 | Trim Patrick St | 1 | 11.2 | 81 | 38,460 | 0.38 | 2.88 | 4.15 | 24.87 | 10.35 | 0 | 4.57 | 8.62 | 9.49 | |||||
| 04:38 | Trim Market St | 2 | 12.7 | 74 | 45,966 | 0.37 | 0 | 3.77 | 13.21 | 36.78 | 0 | 2.14 | 3.32 | 5.73 | |||||
| 04:38 | Trim Patrick St | 1 | 11.2 | 81 | 38,460 | 0.38 | 2.62 | 4.17 | 24.85 | 9.56 | 0 | 5.43 | 10.03 | 11.03 | |||||